createdAt,value
2022-12-25T00:01:13.828Z,7.82
2022-12-25T00:04:03.395Z,7.76
2022-12-25T00:06:44.756Z,7.72
2022-12-25T00:09:29.178Z,7.66
2022-12-25T00:12:15.728Z,7.53
2022-12-25T00:14:59.356Z,7.41
2022-12-25T00:17:43.976Z,7.34
2022-12-25T00:20:24.531Z,7.29
2022-12-25T00:23:13.800Z,7.30
2022-12-25T00:26:08.829Z,7.32
2022-12-25T00:28:55.009Z,7.34
2022-12-25T00:31:37.730Z,7.34
2022-12-25T00:34:22.424Z,7.35
2022-12-25T00:37:00.772Z,7.36
2022-12-25T00:39:40.960Z,7.35
2022-12-25T00:42:26.318Z,7.35
2022-12-25T00:45:09.598Z,7.37
2022-12-25T00:47:50.645Z,7.44
2022-12-25T00:50:30.468Z,7.49
2022-12-25T00:53:15.430Z,7.47
2022-12-25T00:56:13.659Z,7.46
2022-12-25T00:58:57.301Z,7.43
2022-12-25T01:01:40.834Z,7.38
2022-12-25T01:04:18.928Z,7.34
2022-12-25T01:07:00.932Z,7.33
2022-12-25T01:10:01.614Z,7.37
2022-12-25T01:12:46.218Z,7.35
2022-12-25T01:15:28.890Z,7.27
2022-12-25T01:18:11.614Z,7.15
2022-12-25T01:20:51.641Z,7.09
2022-12-25T01:23:33.685Z,7.08
2022-12-25T01:26:18.609Z,7.10
2022-12-25T01:29:03.545Z,7.10
2022-12-25T01:31:41.320Z,7.11
2022-12-25T01:34:33.898Z,7.14
2022-12-25T01:37:15.657Z,7.13
2022-12-25T01:39:56.914Z,7.12
2022-12-25T01:42:39.498Z,7.04
2022-12-25T01:45:54.252Z,6.98
2022-12-25T01:48:36.591Z,6.93
2022-12-25T01:51:28.552Z,6.93
2022-12-25T01:54:11.865Z,6.93
2022-12-25T01:56:56.280Z,6.96
2022-12-25T01:59:36.711Z,6.98
2022-12-25T02:02:27.399Z,6.98
2022-12-25T02:05:33.140Z,7.00
2022-12-25T02:08:19.056Z,7.02
2022-12-25T02:11:02.337Z,7.01
2022-12-25T02:13:47.668Z,7.01
2022-12-25T02:16:57.853Z,7.00
2022-12-25T02:20:09.296Z,6.97
2022-12-25T02:23:39.750Z,6.91
2022-12-25T02:26:30.187Z,6.81
2022-12-25T02:29:37.582Z,6.78
2022-12-25T02:32:25.228Z,6.82
2022-12-25T02:35:22.998Z,6.86
2022-12-25T02:38:12.253Z,6.86
2022-12-25T02:41:04.701Z,6.86
2022-12-25T02:44:07.730Z,6.85
2022-12-25T02:47:08.519Z,6.87
2022-12-25T02:50:10.447Z,6.93
2022-12-25T02:53:10.991Z,7.00
2022-12-25T02:56:15.553Z,7.10
2022-12-25T02:59:15.663Z,7.21
2022-12-25T03:02:18.946Z,7.25
2022-12-25T03:05:29.627Z,7.24
2022-12-25T03:08:25.095Z,7.21
2022-12-25T03:11:31.260Z,7.17
2022-12-25T03:14:32.189Z,7.12
2022-12-25T03:17:16.840Z,7.09
2022-12-25T03:20:17.430Z,7.07
2022-12-25T03:23:19.796Z,7.09
2022-12-25T03:26:17.071Z,7.13
2022-12-25T03:28:55.201Z,7.15
2022-12-25T03:31:53.251Z,7.14
2022-12-25T03:35:28.464Z,7.12
2022-12-25T03:38:54.557Z,7.13
2022-12-25T03:42:02.796Z,7.15
2022-12-25T03:45:37.067Z,7.17
2022-12-25T03:48:38.101Z,7.16
2022-12-25T03:51:44.185Z,7.20
2022-12-25T03:54:47.702Z,7.23
2022-12-25T03:57:50.220Z,7.26
2022-12-25T04:00:53.924Z,7.24
2022-12-25T04:03:52.066Z,7.21
2022-12-25T04:06:56.336Z,7.18
2022-12-25T04:09:59.165Z,7.15
2022-12-25T04:13:03.235Z,7.13
2022-12-25T04:16:12.604Z,7.11
2022-12-25T04:19:08.055Z,7.11
2022-12-25T04:22:15.186Z,7.11
2022-12-25T04:25:17.562Z,6.94
2022-12-25T04:28:36.003Z,6.80
2022-12-25T04:31:40.551Z,6.63
2022-12-25T04:34:44.913Z,6.52
2022-12-25T04:37:32.020Z,6.44
2022-12-25T04:40:12.404Z,6.43
2022-12-25T04:42:50.087Z,6.45
2022-12-25T04:45:31.780Z,6.40
2022-12-25T04:48:11.103Z,6.42
2022-12-25T04:50:55.342Z,6.46
2022-12-25T04:53:32.631Z,6.48
2022-12-25T04:56:15.428Z,6.42
2022-12-25T04:58:55.074Z,6.37
2022-12-25T05:01:40.245Z,6.37
2022-12-25T05:04:18.390Z,6.39
2022-12-25T05:07:16.717Z,6.45
2022-12-25T05:09:56.616Z,6.51
2022-12-25T05:12:46.031Z,6.52
2022-12-25T05:15:24.543Z,6.45
2022-12-25T05:18:15.306Z,6.42
2022-12-25T05:21:04.830Z,6.43
2022-12-25T05:23:55.072Z,6.45
2022-12-25T05:26:33.512Z,6.45
2022-12-25T05:29:12.662Z,6.44
2022-12-25T05:31:51.735Z,6.44
2022-12-25T05:34:44.599Z,6.43
2022-12-25T05:37:23.958Z,6.41
2022-12-25T05:40:08.852Z,6.43
2022-12-25T05:42:48.449Z,6.44
2022-12-25T05:45:47.289Z,6.39
2022-12-25T05:48:25.600Z,6.34
2022-12-25T05:51:17.010Z,6.29
2022-12-25T05:53:57.621Z,6.26
2022-12-25T05:56:49.672Z,6.19
2022-12-25T05:59:27.953Z,6.16
2022-12-25T06:02:16.650Z,6.17
2022-12-25T06:04:56.245Z,6.16
2022-12-25T06:07:42.365Z,6.13
2022-12-25T06:10:18.729Z,6.06
2022-12-25T06:13:02.749Z,6.02
2022-12-25T06:15:46.277Z,6.01
2022-12-25T06:18:35.060Z,6.00
2022-12-25T06:21:16.042Z,6.00
2022-12-25T06:24:00.050Z,5.99
2022-12-25T06:26:39.477Z,6.05
2022-12-25T06:29:22.913Z,6.10
2022-12-25T06:32:02.524Z,6.11
2022-12-25T06:34:46.001Z,6.07
2022-12-25T06:37:35.041Z,6.01
2022-12-25T06:40:16.364Z,5.98
2022-12-25T06:43:00.316Z,5.97
2022-12-25T06:45:43.698Z,5.98
2022-12-25T06:48:27.027Z,5.95
2022-12-25T06:51:13.788Z,5.93
2022-12-25T06:53:53.912Z,5.97
2022-12-25T06:56:38.483Z,5.96
2022-12-25T06:59:22.790Z,5.94
2022-12-25T07:02:08.425Z,5.91
2022-12-25T07:04:51.914Z,5.83
2022-12-25T07:07:36.401Z,5.79
2022-12-25T07:10:16.799Z,5.77
2022-12-25T07:13:03.236Z,5.76
2022-12-25T07:15:45.697Z,5.71
2022-12-25T07:18:29.417Z,5.69
2022-12-25T07:21:22.843Z,5.70
2022-12-25T07:24:04.507Z,5.73
2022-12-25T07:26:52.556Z,5.78
2022-12-25T07:29:37.378Z,5.78
2022-12-25T07:32:16.605Z,5.78
2022-12-25T07:35:07.265Z,5.80
2022-12-25T07:37:57.034Z,5.85
2022-12-25T07:40:37.516Z,5.90
2022-12-25T07:43:20.805Z,5.91
2022-12-25T07:46:16.830Z,5.92
2022-12-25T07:48:56.995Z,6.00
2022-12-25T07:51:38.174Z,6.07
2022-12-25T07:54:18.711Z,6.16
2022-12-25T07:57:03.732Z,6.25
2022-12-25T07:59:58.033Z,6.37
2022-12-25T08:02:42.277Z,6.52
2022-12-25T08:05:20.602Z,6.70
2022-12-25T08:08:02.273Z,6.85
2022-12-25T08:10:41.787Z,6.92
2022-12-25T08:13:22.523Z,6.97
2022-12-25T08:16:06.789Z,7.02
2022-12-25T08:18:47.864Z,7.06
2022-12-25T08:21:27.320Z,7.13
2022-12-25T08:24:09.294Z,7.17
2022-12-25T08:26:51.010Z,7.14
2022-12-25T08:29:35.600Z,7.10
2022-12-25T08:32:18.650Z,7.08
2022-12-25T08:35:04.121Z,7.08
2022-12-25T08:37:41.814Z,7.10
2022-12-25T08:40:24.895Z,7.16
2022-12-25T08:43:03.484Z,7.23
2022-12-25T08:45:49.783Z,7.27
2022-12-25T08:48:29.240Z,7.29
2022-12-25T08:51:11.312Z,7.38
2022-12-25T08:53:49.339Z,7.60
2022-12-25T08:56:36.500Z,7.85
2022-12-25T08:59:16.535Z,8.09
2022-12-25T09:01:55.690Z,8.33
2022-12-25T09:04:35.725Z,8.51
2022-12-25T09:07:22.765Z,8.65
2022-12-25T09:10:01.732Z,8.84
2022-12-25T09:12:49.756Z,9.06
2022-12-25T09:15:28.279Z,9.27
2022-12-25T09:18:13.530Z,9.47
2022-12-25T09:20:52.968Z,9.69
2022-12-25T09:23:37.840Z,9.85
2022-12-25T09:26:18.915Z,9.97
2022-12-25T09:28:58.841Z,10.11
2022-12-25T09:31:39.735Z,10.21
2022-12-25T09:34:19.533Z,10.21
2022-12-25T09:36:59.702Z,10.18
2022-12-25T09:39:42.170Z,10.07
2022-12-25T09:42:41.080Z,9.87
2022-12-25T09:45:44.091Z,9.68
2022-12-25T09:48:23.230Z,9.49
2022-12-25T09:51:14.823Z,9.24
2022-12-25T09:54:06.078Z,8.99
2022-12-25T09:56:46.709Z,8.80
2022-12-25T09:59:32.529Z,8.67
2022-12-25T10:02:49.926Z,8.55
2022-12-25T10:06:07.476Z,8.45
2022-12-25T10:09:26.262Z,8.38
2022-12-25T10:12:44.025Z,8.32
2022-12-25T10:15:58.709Z,8.29
2022-12-25T10:18:57.908Z,8.28
2022-12-25T10:21:41.082Z,8.28
2022-12-25T10:24:29.239Z,8.29
2022-12-25T10:27:22.401Z,8.30
2022-12-25T10:30:05.119Z,8.36
2022-12-25T10:33:01.682Z,8.41
2022-12-25T10:35:43.413Z,8.46
2022-12-25T10:38:32.490Z,8.53
2022-12-25T10:41:20.942Z,8.62
2022-12-25T10:44:03.774Z,8.70
2022-12-25T10:46:51.785Z,8.76
2022-12-25T10:49:41.606Z,8.74
2022-12-25T10:52:39.511Z,8.72
2022-12-25T10:55:31.101Z,8.77
2022-12-25T10:58:11.245Z,8.82
2022-12-25T11:01:06.096Z,8.85
2022-12-25T11:03:52.293Z,8.89
2022-12-25T11:06:41.848Z,8.93
2022-12-25T11:09:24.477Z,8.93
2022-12-25T11:12:08.833Z,8.92
2022-12-25T11:15:05.016Z,8.94
2022-12-25T11:17:56.954Z,8.96
2022-12-25T11:20:43.782Z,8.96
2022-12-25T11:23:39.251Z,8.95
2022-12-25T11:26:26.929Z,8.92
2022-12-25T11:29:20.968Z,8.90
2022-12-25T11:32:04.341Z,8.92
2022-12-25T11:34:54.475Z,8.88
2022-12-25T11:37:49.915Z,8.83
2022-12-25T11:40:33.866Z,8.81
2022-12-25T11:43:40.731Z,8.84
2022-12-25T11:46:26.866Z,8.95
2022-12-25T11:49:16.369Z,9.04
2022-12-25T11:52:03.390Z,9.10
2022-12-25T11:55:03.539Z,9.15
2022-12-25T11:57:46.051Z,9.18
2022-12-25T12:00:28.931Z,9.21
2022-12-25T12:03:33.988Z,9.23
2022-12-25T12:06:41.235Z,9.25
2022-12-25T12:09:35.958Z,9.28
2022-12-25T12:12:57.915Z,9.32
2022-12-25T12:15:52.338Z,9.36
2022-12-25T12:18:37.028Z,9.38
2022-12-25T12:21:37.944Z,9.38
2022-12-25T12:24:26.549Z,9.38
2022-12-25T12:27:18.571Z,9.40
2022-12-25T12:30:06.582Z,9.43
2022-12-25T12:32:54.634Z,9.46
2022-12-25T12:35:41.481Z,9.50
2022-12-25T12:38:27.897Z,9.54
2022-12-25T12:41:17.131Z,9.56
2022-12-25T12:44:14.367Z,9.57
2022-12-25T12:47:05.101Z,9.57
2022-12-25T12:49:48.502Z,9.53
2022-12-25T12:52:41.250Z,9.52
2022-12-25T12:55:36.583Z,9.53
2022-12-25T12:58:07.116Z,9.54
2022-12-25T13:01:17.918Z,9.57
2022-12-25T13:04:31.880Z,9.57
2022-12-25T13:07:42.297Z,9.51
2022-12-25T13:10:27.053Z,9.43
2022-12-25T13:13:17.115Z,9.37
2022-12-25T13:16:02.052Z,9.30
2022-12-25T13:18:47.157Z,9.27
2022-12-25T13:21:31.894Z,9.24
2022-12-25T13:24:28.364Z,9.21
2022-12-25T13:27:46.384Z,9.17
2022-12-25T13:30:36.865Z,9.14
2022-12-25T13:33:29.235Z,9.11
2022-12-25T13:36:27.263Z,9.08
2022-12-25T13:39:19.370Z,9.04
2022-12-25T13:42:15.445Z,9.00
2022-12-25T13:45:02.782Z,8.95
2022-12-25T13:47:55.471Z,8.91
2022-12-25T13:50:42.586Z,8.86
2022-12-25T13:53:32.943Z,8.81
2022-12-25T13:56:19.340Z,8.78
2022-12-25T13:59:31.114Z,8.76
2022-12-25T14:02:27.878Z,8.74
2022-12-25T14:05:37.662Z,8.75
2022-12-25T14:08:31.079Z,8.77
2022-12-25T14:11:16.089Z,8.78
2022-12-25T14:14:08.122Z,8.78
2022-12-25T14:16:52.269Z,8.77
2022-12-25T14:19:31.169Z,8.74
2022-12-25T14:22:27.468Z,8.73
2022-12-25T14:25:19.106Z,8.69
2022-12-25T14:28:03.949Z,8.64
2022-12-25T14:30:52.101Z,8.63
2022-12-25T14:33:33.224Z,8.62
2022-12-25T14:36:18.525Z,8.63
2022-12-25T14:39:06.428Z,8.66
2022-12-25T14:41:56.858Z,8.67
2022-12-25T14:44:49.569Z,8.66
2022-12-25T14:47:33.277Z,8.66
2022-12-25T14:50:39.552Z,8.66
2022-12-25T14:53:25.246Z,8.64
2022-12-25T14:56:12.093Z,8.62
2022-12-25T14:58:58.705Z,8.63
2022-12-25T15:01:48.198Z,8.63
2022-12-25T15:04:32.261Z,8.61
2022-12-25T15:07:36.317Z,8.57
2022-12-25T15:10:58.370Z,8.52
2022-12-25T15:13:26.810Z,8.51
2022-12-25T15:16:32.655Z,8.52
2022-12-25T15:19:40.779Z,8.55
2022-12-25T15:22:19.547Z,8.58
2022-12-25T15:25:04.744Z,8.59
2022-12-25T15:27:44.874Z,8.57
2022-12-25T15:30:31.318Z,8.56
2022-12-25T15:33:09.056Z,8.54
2022-12-25T15:35:53.076Z,8.52
2022-12-25T15:38:41.767Z,8.50
2022-12-25T15:41:46.753Z,8.51
2022-12-25T15:44:31.952Z,8.51
2022-12-25T15:47:25.159Z,8.51
2022-12-25T15:50:04.590Z,8.53
2022-12-25T15:52:46.318Z,8.52
2022-12-25T15:55:28.254Z,8.49
2022-12-25T15:58:09.000Z,8.46
2022-12-25T16:00:49.056Z,8.42
2022-12-25T16:03:30.742Z,8.40
2022-12-25T16:06:14.804Z,8.40
2022-12-25T16:08:56.213Z,8.42
2022-12-25T16:11:34.614Z,8.43
2022-12-25T16:14:29.396Z,8.39
2022-12-25T16:17:11.597Z,8.34
2022-12-25T16:19:54.163Z,8.29
2022-12-25T16:22:33.271Z,8.26
2022-12-25T16:25:28.521Z,8.23
2022-12-25T16:28:15.382Z,8.22
2022-12-25T16:30:57.762Z,8.26
2022-12-25T16:33:39.644Z,8.31
2022-12-25T16:36:27.066Z,8.35
2022-12-25T16:39:12.949Z,8.37
2022-12-25T16:41:58.587Z,8.39
2022-12-25T16:44:41.745Z,8.38
2022-12-25T16:47:21.029Z,8.38
2022-12-25T16:50:06.841Z,8.40
2022-12-25T16:52:51.494Z,8.40
2022-12-25T16:55:31.840Z,8.41
2022-12-25T16:58:20.173Z,8.43
2022-12-25T17:01:12.417Z,8.44
2022-12-25T17:04:04.476Z,8.43
2022-12-25T17:06:47.665Z,8.39
2022-12-25T17:09:44.807Z,8.36
2022-12-25T17:12:26.004Z,8.33
2022-12-25T17:15:20.487Z,8.30
2022-12-25T17:17:58.971Z,8.29
2022-12-25T17:20:43.112Z,8.27
2022-12-25T17:23:40.612Z,8.26
2022-12-25T17:26:28.349Z,8.26
2022-12-25T17:29:22.684Z,8.27
2022-12-25T17:32:04.188Z,8.30
2022-12-25T17:34:43.810Z,8.34
2022-12-25T17:37:26.214Z,8.38
2022-12-25T17:40:08.203Z,8.44
2022-12-25T17:42:42.104Z,8.49
2022-12-25T17:45:28.370Z,8.52
2022-12-25T17:48:10.074Z,8.54
2022-12-25T17:50:51.859Z,8.54
2022-12-25T17:53:36.743Z,8.54
2022-12-25T17:56:22.034Z,8.57
2022-12-25T17:59:31.034Z,8.61
2022-12-25T18:02:12.910Z,8.66
2022-12-25T18:04:55.801Z,8.71
2022-12-25T18:07:41.291Z,8.76
2022-12-25T18:10:25.283Z,8.82
2022-12-25T18:13:16.942Z,8.86
2022-12-25T18:16:07.366Z,8.88
2022-12-25T18:18:52.281Z,8.88
2022-12-25T18:21:40.018Z,8.91
2022-12-25T18:24:20.950Z,8.92
2022-12-25T18:27:02.482Z,8.93
2022-12-25T18:29:40.311Z,8.94
2022-12-25T18:32:27.833Z,8.95
2022-12-25T18:35:06.890Z,8.96
2022-12-25T18:37:52.408Z,8.96
2022-12-25T18:40:33.329Z,8.94
2022-12-25T18:43:51.428Z,8.92
2022-12-25T18:46:24.958Z,8.90
2022-12-25T18:49:10.843Z,8.88
2022-12-25T18:51:50.402Z,8.86
2022-12-25T18:54:32.877Z,8.87
2022-12-25T18:57:07.857Z,8.88
2022-12-25T18:59:50.406Z,8.91
2022-12-25T19:02:31.543Z,8.91
2022-12-25T19:05:15.968Z,8.93
2022-12-25T19:07:55.074Z,8.92
2022-12-25T19:10:36.606Z,8.92
2022-12-25T19:13:15.162Z,8.92
2022-12-25T19:15:56.145Z,8.94
2022-12-25T19:18:39.147Z,8.96
2022-12-25T19:21:22.101Z,8.99
2022-12-25T19:24:00.237Z,9.00
2022-12-25T19:26:50.736Z,9.02
2022-12-25T19:29:29.117Z,9.01
2022-12-25T19:32:18.010Z,9.00
2022-12-25T19:34:57.526Z,9.00
2022-12-25T19:37:44.516Z,9.00
2022-12-25T19:40:27.900Z,8.99
2022-12-25T19:43:20.998Z,8.99
2022-12-25T19:46:03.319Z,8.98
2022-12-25T19:48:50.603Z,8.98
2022-12-25T19:51:32.009Z,8.98
2022-12-25T19:54:15.621Z,8.99
2022-12-25T19:57:01.928Z,9.01
2022-12-25T19:59:42.124Z,9.06
2022-12-25T20:02:27.261Z,9.10
2022-12-25T20:05:10.966Z,9.16
2022-12-25T20:07:52.963Z,9.19
2022-12-25T20:10:32.684Z,9.21
2022-12-25T20:13:14.777Z,9.20
2022-12-25T20:16:00.305Z,9.19
2022-12-25T20:18:44.684Z,9.17
2022-12-25T20:21:27.898Z,9.16
2022-12-25T20:24:12.935Z,9.16
2022-12-25T20:27:01.615Z,9.17
2022-12-25T20:29:40.610Z,9.18
2022-12-25T20:32:18.823Z,9.23
2022-12-25T20:35:02.478Z,9.24
2022-12-25T20:37:44.198Z,9.24
2022-12-25T20:40:27.598Z,9.24
2022-12-25T20:43:10.411Z,9.24
2022-12-25T20:46:02.756Z,9.25
2022-12-25T20:48:46.857Z,9.27
2022-12-25T20:51:37.136Z,9.27
2022-12-25T20:54:14.697Z,9.28
2022-12-25T20:56:51.700Z,9.28
2022-12-25T20:59:37.983Z,9.27
2022-12-25T21:02:35.338Z,9.25
2022-12-25T21:05:20.964Z,9.22
2022-12-25T21:08:00.096Z,9.20
2022-12-25T21:10:41.169Z,9.21
2022-12-25T21:13:19.631Z,9.24
2022-12-25T21:16:09.349Z,9.28
2022-12-25T21:18:51.377Z,9.30
2022-12-25T21:21:34.263Z,9.31
2022-12-25T21:24:12.657Z,9.31
2022-12-25T21:27:06.356Z,9.32
2022-12-25T21:29:45.248Z,9.31
2022-12-25T21:33:09.456Z,9.31
2022-12-25T21:35:49.056Z,9.32
2022-12-25T21:38:25.393Z,9.34
2022-12-25T21:41:14.009Z,9.38
2022-12-25T21:43:58.960Z,9.40
2022-12-25T21:46:39.390Z,9.43
2022-12-25T21:49:41.021Z,9.43
2022-12-25T21:52:20.029Z,9.44
2022-12-25T21:55:05.419Z,9.45
2022-12-25T21:57:53.271Z,9.46
2022-12-25T22:00:34.456Z,9.48
2022-12-25T22:03:13.444Z,9.48
2022-12-25T22:06:19.267Z,9.47
2022-12-25T22:09:06.633Z,9.46
2022-12-25T22:12:06.873Z,9.46
2022-12-25T22:14:57.252Z,9.46
2022-12-25T22:18:02.055Z,9.47
2022-12-25T22:20:45.988Z,9.47
2022-12-25T22:23:35.798Z,9.49
2022-12-25T22:26:20.487Z,9.51
2022-12-25T22:29:08.419Z,9.53
2022-12-25T22:31:47.815Z,9.54
2022-12-25T22:34:32.692Z,9.53
2022-12-25T22:37:20.508Z,9.52
2022-12-25T22:40:03.895Z,9.50
2022-12-25T22:42:43.402Z,9.50
2022-12-25T22:45:26.871Z,9.50
2022-12-25T22:48:07.878Z,9.51
2022-12-25T22:50:54.420Z,9.52
2022-12-25T22:53:35.562Z,9.53
2022-12-25T22:56:23.211Z,9.52
2022-12-25T22:58:56.900Z,9.52
2022-12-25T23:01:37.110Z,9.51
2022-12-25T23:04:20.524Z,9.50
2022-12-25T23:07:05.614Z,9.51
2022-12-25T23:09:48.263Z,9.53
2022-12-25T23:12:47.525Z,9.53
2022-12-25T23:15:35.455Z,9.53
2022-12-25T23:18:31.918Z,9.53
2022-12-25T23:21:35.911Z,9.52
2022-12-25T23:24:43.398Z,9.54
2022-12-25T23:27:23.897Z,9.57
2022-12-25T23:30:10.401Z,9.60
2022-12-25T23:32:57.480Z,9.63
2022-12-25T23:35:38.982Z,9.65
2022-12-25T23:38:18.990Z,9.66
2022-12-25T23:41:04.095Z,9.65
2022-12-25T23:43:51.000Z,9.63
2022-12-25T23:46:35.616Z,9.63
2022-12-25T23:49:17.001Z,9.63
2022-12-25T23:51:58.260Z,9.63
2022-12-25T23:54:36.076Z,9.64
2022-12-25T23:57:16.791Z,9.63
2022-12-25T23:59:58.692Z,9.60
